Arlington, Wyoming
Current Conditions -  °F | °C
As of 10:55 PM on Thursday 30 Oct 2014 (Local Time) from KEHY Reporting Station
Clear Clear  
Wind Chill: 30°   Ceiling: Unl
Heat Index: 34°   Visibility: 10mi
Dew Point: 21°   Wind: 5mph
Humidity: 60%   Direction: 110°ESE
Pressure: 30.33"   Gusts: NA
Location:  41.6691°N, 106.011°W
Report Text: KEHY 310455Z AUTO 11004KT 10SM CLR 01/M06 A3033 RMK AO2
Loading
Personal Weather Stations






























Interactive Weather Map New forecast layout! Learn more

10-Day Weather Forecast

Advertisements
Track Severe Weather on mobile